Terminal Aerodrome Forecast
Issued by NWS

Home | Current Version | Previous Version | Text Only | Print | Product List | Glossary On
Versions: 1 2 3 4 5 6 7 8 9 10 11 12 13 14 15 16 17 18 19
000
FTUS43 KLSX 230520
TAFCPS
TAF
KCPS 230520Z 2306/2406 16007KT P6SM BKN250
     FM231200 22006KT P6SM VCTS BKN050CB
     FM231500 25007KT P6SM VCSH OVC015
     FM231700 35009KT P6SM BKN020
     FM232000 35011G18KT P6SM BKN035
     FM240100 33007KT P6SM FEW250=

USA.gov is the U.S. government's official web portal to all federal, state and local government web resources and services.